createdAt,value
2022-12-18T00:00:03.406Z,-6.71
2022-12-18T00:05:16.616Z,-6.66
2022-12-18T00:10:22.177Z,-6.77
2022-12-18T00:15:26.393Z,-6.67
2022-12-18T00:20:29.533Z,-6.72
2022-12-18T00:25:34.872Z,-6.74
2022-12-18T00:30:39.145Z,-6.71
2022-12-18T00:35:42.044Z,-6.69
2022-12-18T00:40:46.650Z,-6.64
2022-12-18T00:45:50.973Z,-6.78
2022-12-18T00:50:54.098Z,-6.84
2022-12-18T00:55:57.163Z,-6.70
2022-12-18T01:01:01.561Z,-6.83
2022-12-18T01:06:08.183Z,-6.90
2022-12-18T01:11:13.083Z,-6.79
2022-12-18T01:16:20.117Z,-6.92
2022-12-18T01:21:24.539Z,-6.91
2022-12-18T01:26:30.399Z,-7.08
2022-12-18T01:31:36.308Z,-6.93
2022-12-18T01:36:40.922Z,-6.98
2022-12-18T01:42:02.229Z,-7.06
2022-12-18T01:47:06.971Z,-7.02
2022-12-18T01:52:09.991Z,-7.06
2022-12-18T01:57:13.511Z,-7.06
2022-12-18T02:02:19.102Z,-7.09
2022-12-18T02:07:33.517Z,-7.09
2022-12-18T02:12:47.118Z,-7.13
2022-12-18T02:17:57.311Z,-7.13
2022-12-18T02:23:11.852Z,-7.08
2022-12-18T02:28:18.798Z,-7.15
2022-12-18T02:33:28.261Z,-7.21
2022-12-18T02:38:34.786Z,-7.13
2022-12-18T02:43:52.463Z,-7.03
2022-12-18T02:49:03.539Z,-6.92
2022-12-18T02:54:15.792Z,-6.99
2022-12-18T02:59:26.500Z,-7.03
2022-12-18T03:04:40.373Z,-7.06
2022-12-18T03:09:50.514Z,-7.03
2022-12-18T03:15:00.474Z,-7.06
2022-12-18T03:20:09.541Z,-7.16
2022-12-18T03:25:16.806Z,-7.13
2022-12-18T03:30:21.597Z,-7.20
2022-12-18T03:35:30.628Z,-7.21
2022-12-18T03:40:47.122Z,-7.18
2022-12-18T03:46:00.474Z,-7.16
2022-12-18T03:51:10.264Z,-7.04
2022-12-18T03:56:15.889Z,-6.90
2022-12-18T04:01:26.090Z,-6.86
2022-12-18T04:06:31.387Z,-6.92
2022-12-18T04:11:34.459Z,-6.95
2022-12-18T04:16:41.416Z,-7.08
2022-12-18T04:21:51.242Z,-7.22
2022-12-18T04:26:54.454Z,-7.25
2022-12-18T04:32:05.193Z,-7.16
2022-12-18T04:37:09.494Z,-7.17
2022-12-18T04:42:12.510Z,-7.17
2022-12-18T04:47:16.728Z,-7.25
2022-12-18T04:52:19.562Z,-7.19
2022-12-18T04:57:22.393Z,-7.15
2022-12-18T05:02:26.690Z,-7.14
2022-12-18T05:07:29.569Z,-7.12
2022-12-18T05:12:33.698Z,-7.14
2022-12-18T05:17:37.911Z,-7.22
2022-12-18T05:22:40.740Z,-7.26
2022-12-18T05:27:43.736Z,-7.37
2022-12-18T05:32:47.914Z,-7.38
2022-12-18T05:37:50.744Z,-7.47
2022-12-18T05:42:53.586Z,-7.44
2022-12-18T05:47:57.989Z,-7.47
2022-12-18T05:53:00.845Z,-7.42
2022-12-18T05:58:04.128Z,-7.44
2022-12-18T06:03:08.994Z,-7.31
2022-12-18T06:08:12.710Z,-7.32
2022-12-18T06:13:15.546Z,-7.33
2022-12-18T06:18:19.663Z,-7.30
2022-12-18T06:23:22.468Z,-7.33
2022-12-18T06:28:25.316Z,-7.42
2022-12-18T06:33:30.293Z,-7.42
2022-12-18T06:38:33.718Z,-7.35
2022-12-18T06:43:37.016Z,-7.34
2022-12-18T06:48:41.796Z,-7.29
2022-12-18T06:53:44.610Z,-7.28
2022-12-18T06:58:47.474Z,-7.30
2022-12-18T07:03:55.739Z,-7.29
2022-12-18T07:08:58.653Z,-7.28
2022-12-18T07:14:01.687Z,-7.35
2022-12-18T07:19:05.853Z,-7.33
2022-12-18T07:24:09.429Z,-7.38
2022-12-18T07:29:12.230Z,-7.34
2022-12-18T07:34:17.059Z,-7.47
2022-12-18T07:39:19.888Z,-7.37
2022-12-18T07:44:22.755Z,-6.84
2022-12-18T07:49:27.022Z,-5.99
2022-12-18T07:54:30.441Z,-5.83
2022-12-18T07:59:33.263Z,-5.46
2022-12-18T08:04:37.523Z,-5.43
2022-12-18T08:09:40.327Z,-5.48
2022-12-18T08:14:43.198Z,-5.26
2022-12-18T08:19:47.391Z,-5.16
2022-12-18T08:24:50.186Z,-4.96
2022-12-18T08:29:53.185Z,-4.93
2022-12-18T08:34:57.471Z,-4.65
2022-12-18T08:40:00.297Z,-4.39
2022-12-18T08:45:03.224Z,-3.82
2022-12-18T08:50:08.247Z,-3.49
2022-12-18T08:55:11.746Z,-3.80
2022-12-18T09:00:15.764Z,-3.47
2022-12-18T09:05:20.975Z,-3.47
2022-12-18T09:10:24.157Z,-3.25
2022-12-18T09:15:27.128Z,-3.44
2022-12-18T09:20:31.400Z,-3.39
2022-12-18T09:25:36.785Z,-3.28
2022-12-18T09:30:40.099Z,-3.16
2022-12-18T09:35:45.911Z,-3.52
2022-12-18T09:40:51.190Z,-3.42
2022-12-18T09:45:57.376Z,-2.94
2022-12-18T09:51:05.805Z,-2.37
2022-12-18T09:56:14.384Z,-1.64
2022-12-18T10:01:22.224Z,-0.95
2022-12-18T10:06:40.033Z,-0.92
2022-12-18T10:11:50.109Z,-1.58
2022-12-18T10:17:01.879Z,-1.62
2022-12-18T10:22:18.421Z,-0.93
2022-12-18T10:27:28.009Z,-0.91
2022-12-18T10:32:32.157Z,-0.88
2022-12-18T10:37:36.439Z,-0.96
2022-12-18T10:42:40.665Z,-0.69
2022-12-18T10:47:45.707Z,-0.48
2022-12-18T10:52:57.359Z,0.29
2022-12-18T10:58:22.185Z,0.25
2022-12-18T11:03:34.056Z,0.17
2022-12-18T11:08:39.303Z,0.17
2022-12-18T11:13:42.586Z,0.27
2022-12-18T11:18:45.462Z,-0.22
2022-12-18T11:23:52.868Z,-0.52
2022-12-18T11:29:11.167Z,-0.87
2022-12-18T11:34:30.275Z,-0.58
2022-12-18T11:39:39.602Z,-0.48
2022-12-18T11:44:49.535Z,-1.02
2022-12-18T11:49:53.272Z,-1.35
2022-12-18T11:55:01.819Z,-1.64
2022-12-18T12:00:13.216Z,-1.66
2022-12-18T12:05:30.735Z,-1.42
2022-12-18T12:10:46.156Z,-1.22
2022-12-18T12:16:01.368Z,-1.38
2022-12-18T12:21:10.092Z,-1.48
2022-12-18T12:26:23.422Z,-1.65
2022-12-18T12:31:40.363Z,-1.51
2022-12-18T12:36:54.598Z,-1.60
2022-12-18T12:42:17.245Z,-1.31
2022-12-18T12:47:26.139Z,-1.37
2022-12-18T12:52:34.434Z,-1.63
2022-12-18T12:57:42.037Z,-1.69
2022-12-18T13:02:53.355Z,-1.82
2022-12-18T13:08:04.676Z,-1.83
2022-12-18T13:13:13.422Z,-1.84
2022-12-18T13:18:23.527Z,-1.93
2022-12-18T13:23:40.994Z,-1.88
2022-12-18T13:28:56.174Z,-1.71
2022-12-18T13:34:26.089Z,-1.84
2022-12-18T13:39:35.950Z,-1.90
2022-12-18T13:44:43.067Z,-1.85
2022-12-18T13:49:46.437Z,-1.82
2022-12-18T13:54:54.496Z,-1.83
2022-12-18T14:00:18.189Z,-1.63
2022-12-18T14:05:24.687Z,-1.81
2022-12-18T14:10:48.699Z,-1.71
2022-12-18T14:15:52.712Z,-1.85
2022-12-18T14:21:00.995Z,-1.84
2022-12-18T14:26:06.409Z,-1.70
2022-12-18T14:31:20.404Z,-1.73
2022-12-18T14:36:25.668Z,-1.75
2022-12-18T14:41:29.759Z,-1.90
2022-12-18T14:46:37.725Z,-2.00
2022-12-18T14:51:40.694Z,-1.85
2022-12-18T14:56:47.006Z,-1.88
2022-12-18T15:01:59.147Z,-1.89
2022-12-18T15:07:13.434Z,-1.78
2022-12-18T15:12:27.949Z,-1.80
2022-12-18T15:17:32.274Z,-1.92
2022-12-18T15:22:37.492Z,-1.86
2022-12-18T15:27:40.463Z,-1.83
2022-12-18T15:32:48.664Z,-1.77
2022-12-18T15:37:52.955Z,-1.93
2022-12-18T15:43:15.022Z,-1.76
2022-12-18T15:48:24.048Z,-1.68
2022-12-18T15:53:30.025Z,-1.91
2022-12-18T15:58:33.776Z,-1.80
2022-12-18T16:03:38.628Z,-1.62
2022-12-18T16:08:43.009Z,-1.59
2022-12-18T16:13:45.790Z,-1.69
2022-12-18T16:18:50.195Z,-1.87
2022-12-18T16:23:53.005Z,-1.69
2022-12-18T16:28:56.432Z,-1.62
2022-12-18T16:34:20.336Z,-1.82
2022-12-18T16:39:25.510Z,-1.77
2022-12-18T16:44:29.542Z,-1.64
2022-12-18T16:49:33.854Z,-1.63
2022-12-18T16:54:36.908Z,-1.82
2022-12-18T16:59:39.750Z,-1.72
2022-12-18T17:04:45.246Z,-1.84
2022-12-18T17:09:48.833Z,-1.92
2022-12-18T17:14:51.866Z,-1.65
2022-12-18T17:19:56.723Z,-1.87
2022-12-18T17:24:59.589Z,-1.54
2022-12-18T17:30:02.505Z,-1.75
2022-12-18T17:35:07.580Z,-1.79
2022-12-18T17:40:12.088Z,-1.64
2022-12-18T17:45:15.075Z,-1.64
2022-12-18T17:50:19.482Z,-1.71
2022-12-18T17:55:22.306Z,-1.43
2022-12-18T18:00:25.384Z,-1.57
2022-12-18T18:05:29.699Z,-1.63
2022-12-18T18:10:33.281Z,-1.43
2022-12-18T18:15:40.639Z,-1.50
2022-12-18T18:20:45.140Z,-1.50
2022-12-18T18:25:52.253Z,-1.75
2022-12-18T18:30:56.444Z,-1.58
2022-12-18T18:36:00.920Z,-1.54
2022-12-18T18:41:05.193Z,-1.56
2022-12-18T18:46:08.267Z,-1.69
2022-12-18T18:51:14.680Z,-1.55
2022-12-18T19:01:50.464Z,-1.82
2022-12-18T19:06:54.817Z,-1.48
2022-12-18T19:12:16.598Z,-1.43
2022-12-18T19:17:20.489Z,-1.36
2022-12-18T19:22:26.985Z,-1.54
2022-12-18T19:27:29.818Z,-1.57
2022-12-18T19:32:32.856Z,-1.56
2022-12-18T19:37:37.085Z,-1.69
2022-12-18T19:42:39.899Z,-1.56
2022-12-18T19:47:42.702Z,-1.55
2022-12-18T19:52:46.948Z,-1.55
2022-12-18T19:57:49.917Z,-1.50
2022-12-18T20:02:54.296Z,-1.23
2022-12-18T20:08:02.661Z,-1.19
2022-12-18T20:13:06.458Z,-1.40
2022-12-18T20:18:10.260Z,-1.56
2022-12-18T20:23:14.588Z,-1.87
2022-12-18T20:28:17.430Z,-2.19
2022-12-18T20:33:20.238Z,-2.11
2022-12-18T20:38:24.416Z,-1.98
2022-12-18T20:43:27.637Z,-2.04
2022-12-18T20:48:31.450Z,-1.87
2022-12-18T20:53:36.698Z,-1.93
2022-12-18T20:58:41.569Z,-1.89
2022-12-18T21:03:45.973Z,-2.07
2022-12-18T21:08:50.615Z,-1.88
2022-12-18T21:13:53.491Z,-2.04
2022-12-18T21:18:56.565Z,-2.13
2022-12-18T21:24:01.945Z,-2.05
2022-12-18T21:29:06.482Z,-1.96
2022-12-18T21:34:11.613Z,-2.01
2022-12-18T21:39:16.824Z,-1.98
2022-12-18T21:44:20.324Z,-2.02
2022-12-18T21:49:24.266Z,-1.81
2022-12-18T21:54:30.410Z,-1.76
2022-12-18T21:59:36.107Z,-1.56
2022-12-18T22:04:38.921Z,-1.80
2022-12-18T22:09:43.934Z,-1.78
2022-12-18T22:14:46.809Z,-1.83
2022-12-18T22:19:50.427Z,-1.77
2022-12-18T22:24:55.125Z,-1.74
2022-12-18T22:30:07.085Z,-1.91
2022-12-18T22:35:15.584Z,-1.63
2022-12-18T22:40:28.547Z,-1.57
2022-12-18T22:45:31.596Z,-1.53
2022-12-18T22:50:36.601Z,-1.62
2022-12-18T22:55:40.859Z,-1.66
2022-12-18T23:00:43.718Z,-1.67
2022-12-18T23:05:47.777Z,-1.54
2022-12-18T23:10:54.494Z,-1.60
2022-12-18T23:15:57.435Z,-1.63
2022-12-18T23:21:05.549Z,-1.59
2022-12-18T23:26:12.117Z,-1.49
2022-12-18T23:31:16.961Z,-1.62
2022-12-18T23:36:21.080Z,-1.58
2022-12-18T23:41:27.266Z,-1.48
2022-12-18T23:46:32.222Z,-1.39
2022-12-18T23:51:38.247Z,-1.27
2022-12-18T23:56:43.885Z,-1.30
